sensor_id;sensor_type;location;lat;lon;timestamp;P1;durP1;ratioP1;P2;durP2;ratioP2
64031;SDS011;50278;47.796;11.968;2022-10-26T00:00:35;1.83;;;0.80;;
64031;SDS011;50278;47.796;11.968;2022-10-26T00:03:01;2.28;;;0.60;;
64031;SDS011;50278;47.796;11.968;2022-10-26T00:05:26;1.58;;;0.63;;
64031;SDS011;50278;47.796;11.968;2022-10-26T00:07:52;2.03;;;1.17;;
64031;SDS011;50278;47.796;11.968;2022-10-26T00:10:17;1.40;;;0.90;;
64031;SDS011;50278;47.796;11.968;2022-10-26T00:12:47;2.63;;;0.80;;
64031;SDS011;50278;47.796;11.968;2022-10-26T00:15:14;2.08;;;0.80;;
64031;SDS011;50278;47.796;11.968;2022-10-26T00:17:40;2.78;;;0.88;;
64031;SDS011;50278;47.796;11.968;2022-10-26T00:20:06;1.98;;;0.90;;
64031;SDS011;50278;47.796;11.968;2022-10-26T00:22:32;1.00;;;0.70;;
64031;SDS011;50278;47.796;11.968;2022-10-26T00:24:57;2.40;;;0.90;;
64031;SDS011;50278;47.796;11.968;2022-10-26T00:27:23;2.22;;;1.10;;
64031;SDS011;50278;47.796;11.968;2022-10-26T00:29:48;2.60;;;0.88;;
64031;SDS011;50278;47.796;11.968;2022-10-26T00:32:14;2.47;;;0.68;;
64031;SDS011;50278;47.796;11.968;2022-10-26T00:34:39;1.67;;;0.68;;
64031;SDS011;50278;47.796;11.968;2022-10-26T00:37:05;2.25;;;1.08;;
64031;SDS011;50278;47.796;11.968;2022-10-26T00:39:30;1.60;;;0.80;;
64031;SDS011;50278;47.796;11.968;2022-10-26T00:41:56;2.72;;;1.00;;
64031;SDS011;50278;47.796;11.968;2022-10-26T00:47:18;5.70;;;0.95;;
64031;SDS011;50278;47.796;11.968;2022-10-26T00:49:53;4.22;;;1.17;;
64031;SDS011;50278;47.796;11.968;2022-10-26T00:52:21;4.20;;;1.17;;
64031;SDS011;50278;47.796;11.968;2022-10-26T00:54:48;2.15;;;1.13;;
64031;SDS011;50278;47.796;11.968;2022-10-26T00:57:14;2.67;;;0.70;;
64031;SDS011;50278;47.796;11.968;2022-10-26T00:59:43;1.88;;;0.90;;
64031;SDS011;50278;47.796;11.968;2022-10-26T01:02:10;3.75;;;1.02;;
64031;SDS011;50278;47.796;11.968;2022-10-26T01:04:36;2.50;;;0.90;;
64031;SDS011;50278;47.796;11.968;2022-10-26T01:07:03;4.32;;;0.93;;
64031;SDS011;50278;47.796;11.968;2022-10-26T01:09:29;4.20;;;0.90;;
64031;SDS011;50278;47.796;11.968;2022-10-26T01:11:57;1.05;;;0.82;;
64031;SDS011;50278;47.796;11.968;2022-10-26T01:14:23;2.00;;;0.70;;
64031;SDS011;50278;47.796;11.968;2022-10-26T01:16:57;2.25;;;1.02;;
64031;SDS011;50278;47.796;11.968;2022-10-26T01:22:36;3.90;;;1.10;;
64031;SDS011;50278;47.796;11.968;2022-10-26T01:25:40;0.88;;;0.65;;
64031;SDS011;50278;47.796;11.968;2022-10-26T01:29:24;5.20;;;1.27;;
64031;SDS011;50278;47.796;11.968;2022-10-26T01:31:37;1.05;;;0.70;;
64031;SDS011;50278;47.796;11.968;2022-10-26T01:34:11;1.33;;;0.75;;
64031;SDS011;50278;47.796;11.968;2022-10-26T01:36:46;3.00;;;1.00;;
64031;SDS011;50278;47.796;11.968;2022-10-26T01:39:20;4.60;;;0.85;;
64031;SDS011;50278;47.796;11.968;2022-10-26T01:41:57;3.05;;;0.85;;
64031;SDS011;50278;47.796;11.968;2022-10-26T01:44:28;3.22;;;0.82;;
64031;SDS011;50278;47.796;11.968;2022-10-26T01:47:06;1.65;;;0.90;;
64031;SDS011;50278;47.796;11.968;2022-10-26T01:49:35;1.92;;;0.90;;
64031;SDS011;50278;47.796;11.968;2022-10-26T01:52:04;2.53;;;0.70;;
64031;SDS011;50278;47.796;11.968;2022-10-26T01:54:30;2.38;;;0.98;;
64031;SDS011;50278;47.796;11.968;2022-10-26T01:56:59;2.83;;;0.90;;
64031;SDS011;50278;47.796;11.968;2022-10-26T02:07:42;1.48;;;0.75;;
64031;SDS011;50278;47.796;11.968;2022-10-26T02:15:33;1.88;;;0.77;;
64031;SDS011;50278;47.796;11.968;2022-10-26T02:18:33;2.00;;;0.80;;
64031;SDS011;50278;47.796;11.968;2022-10-26T02:21:37;3.45;;;1.10;;
64031;SDS011;50278;47.796;11.968;2022-10-26T02:24:08;1.17;;;0.80;;
64031;SDS011;50278;47.796;11.968;2022-10-26T02:26:38;3.90;;;1.08;;
64031;SDS011;50278;47.796;11.968;2022-10-26T02:29:06;1.52;;;0.98;;
64031;SDS011;50278;47.796;11.968;2022-10-26T02:31:35;3.33;;;0.98;;
64031;SDS011;50278;47.796;11.968;2022-10-26T02:34:03;2.42;;;0.95;;
64031;SDS011;50278;47.796;11.968;2022-10-26T02:36:32;1.63;;;0.98;;
64031;SDS011;50278;47.796;11.968;2022-10-26T02:39:00;1.80;;;0.90;;
64031;SDS011;50278;47.796;11.968;2022-10-26T02:41:29;3.22;;;1.10;;
64031;SDS011;50278;47.796;11.968;2022-10-26T02:43:59;2.63;;;0.80;;
64031;SDS011;50278;47.796;11.968;2022-10-26T02:46:32;2.67;;;0.93;;
64031;SDS011;50278;47.796;11.968;2022-10-26T02:48:58;2.40;;;1.30;;
64031;SDS011;50278;47.796;11.968;2022-10-26T02:53:58;2.38;;;0.90;;
64031;SDS011;50278;47.796;11.968;2022-10-26T02:56:38;2.35;;;0.90;;
64031;SDS011;50278;47.796;11.968;2022-10-26T02:59:10;1.67;;;0.80;;
64031;SDS011;50278;47.796;11.968;2022-10-26T03:01:38;2.85;;;0.70;;
64031;SDS011;50278;47.796;11.968;2022-10-26T03:04:05;3.92;;;1.35;;
64031;SDS011;50278;47.796;11.968;2022-10-26T03:06:31;2.75;;;0.82;;
64031;SDS011;50278;47.796;11.968;2022-10-26T03:08:56;2.42;;;1.08;;
64031;SDS011;50278;47.796;11.968;2022-10-26T03:11:22;4.03;;;1.17;;
64031;SDS011;50278;47.796;11.968;2022-10-26T03:13:47;3.17;;;1.42;;
64031;SDS011;50278;47.796;11.968;2022-10-26T03:16:13;3.80;;;1.45;;
64031;SDS011;50278;47.796;11.968;2022-10-26T03:18:38;4.78;;;1.60;;
64031;SDS011;50278;47.796;11.968;2022-10-26T03:21:04;2.55;;;1.10;;
64031;SDS011;50278;47.796;11.968;2022-10-26T03:23:29;2.38;;;1.15;;
64031;SDS011;50278;47.796;11.968;2022-10-26T03:25:56;2.65;;;1.40;;
64031;SDS011;50278;47.796;11.968;2022-10-26T03:28:22;3.67;;;1.80;;
64031;SDS011;50278;47.796;11.968;2022-10-26T03:30:47;2.00;;;1.65;;
64031;SDS011;50278;47.796;11.968;2022-10-26T03:33:13;2.75;;;1.77;;
64031;SDS011;50278;47.796;11.968;2022-10-26T03:35:38;2.33;;;1.83;;
64031;SDS011;50278;47.796;11.968;2022-10-26T03:38:04;3.25;;;2.83;;
64031;SDS011;50278;47.796;11.968;2022-10-26T03:40:29;4.22;;;1.90;;
64031;SDS011;50278;47.796;11.968;2022-10-26T03:42:55;5.78;;;3.30;;
64031;SDS011;50278;47.796;11.968;2022-10-26T03:45:20;4.75;;;3.92;;
64031;SDS011;50278;47.796;11.968;2022-10-26T03:47:47;4.93;;;3.72;;
64031;SDS011;50278;47.796;11.968;2022-10-26T03:50:14;3.45;;;2.08;;
64031;SDS011;50278;47.796;11.968;2022-10-26T03:52:42;4.72;;;2.47;;
64031;SDS011;50278;47.796;11.968;2022-10-26T03:55:08;2.65;;;1.52;;
64031;SDS011;50278;47.796;11.968;2022-10-26T03:57:38;2.45;;;1.92;;
64031;SDS011;50278;47.796;11.968;2022-10-26T04:00:08;3.53;;;1.40;;
64031;SDS011;50278;47.796;11.968;2022-10-26T04:02:40;3.47;;;1.27;;
64031;SDS011;50278;47.796;11.968;2022-10-26T04:05:06;3.97;;;1.50;;
64031;SDS011;50278;47.796;11.968;2022-10-26T04:07:33;4.60;;;1.52;;
64031;SDS011;50278;47.796;11.968;2022-10-26T04:09:58;4.32;;;1.00;;
64031;SDS011;50278;47.796;11.968;2022-10-26T04:12:24;2.35;;;1.10;;
64031;SDS011;50278;47.796;11.968;2022-10-26T04:14:49;2.10;;;0.95;;
64031;SDS011;50278;47.796;11.968;2022-10-26T04:17:15;2.08;;;0.90;;
64031;SDS011;50278;47.796;11.968;2022-10-26T04:19:40;1.88;;;1.02;;
64031;SDS011;50278;47.796;11.968;2022-10-26T04:22:06;2.95;;;0.90;;
64031;SDS011;50278;47.796;11.968;2022-10-26T04:24:31;4.65;;;0.88;;
64031;SDS011;50278;47.796;11.968;2022-10-26T04:26:57;1.27;;;0.52;;
64031;SDS011;50278;47.796;11.968;2022-10-26T04:29:22;1.50;;;0.70;;
64031;SDS011;50278;47.796;11.968;2022-10-26T04:31:47;2.08;;;0.63;;
64031;SDS011;50278;47.796;11.968;2022-10-26T04:34:13;3.38;;;0.60;;
64031;SDS011;50278;47.796;11.968;2022-10-26T04:36:39;1.50;;;0.60;;
64031;SDS011;50278;47.796;11.968;2022-10-26T04:39:04;2.03;;;0.70;;
64031;SDS011;50278;47.796;11.968;2022-10-26T04:41:29;3.58;;;0.90;;
64031;SDS011;50278;47.796;11.968;2022-10-26T04:43:55;0.95;;;0.45;;
64031;SDS011;50278;47.796;11.968;2022-10-26T04:46:21;1.63;;;0.60;;
64031;SDS011;50278;47.796;11.968;2022-10-26T04:48:46;1.65;;;0.80;;
64031;SDS011;50278;47.796;11.968;2022-10-26T04:51:12;1.80;;;0.80;;
64031;SDS011;50278;47.796;11.968;2022-10-26T04:53:38;3.03;;;1.17;;
64031;SDS011;50278;47.796;11.968;2022-10-26T04:56:03;2.88;;;1.30;;
64031;SDS011;50278;47.796;11.968;2022-10-26T04:58:29;1.25;;;0.90;;
64031;SDS011;50278;47.796;11.968;2022-10-26T05:00:55;5.97;;;1.23;;
64031;SDS011;50278;47.796;11.968;2022-10-26T05:03:20;2.53;;;1.30;;
64031;SDS011;50278;47.796;11.968;2022-10-26T05:05:46;3.20;;;2.35;;
64031;SDS011;50278;47.796;11.968;2022-10-26T05:08:12;2.97;;;2.03;;
64031;SDS011;50278;47.796;11.968;2022-10-26T05:10:38;9.35;;;4.90;;
64031;SDS011;50278;47.796;11.968;2022-10-26T05:13:04;5.80;;;3.35;;
64031;SDS011;50278;47.796;11.968;2022-10-26T05:15:30;4.32;;;3.20;;
64031;SDS011;50278;47.796;11.968;2022-10-26T05:20:26;3.45;;;2.33;;
64031;SDS011;50278;47.796;11.968;2022-10-26T05:22:55;5.18;;;2.92;;
64031;SDS011;50278;47.796;11.968;2022-10-26T05:25:22;3.42;;;2.08;;
64031;SDS011;50278;47.796;11.968;2022-10-26T05:27:48;4.05;;;2.05;;
64031;SDS011;50278;47.796;11.968;2022-10-26T05:30:13;4.40;;;1.60;;
64031;SDS011;50278;47.796;11.968;2022-10-26T05:32:39;4.95;;;1.70;;
64031;SDS011;50278;47.796;11.968;2022-10-26T05:35:04;4.80;;;1.40;;
64031;SDS011;50278;47.796;11.968;2022-10-26T05:37:30;3.13;;;1.42;;
64031;SDS011;50278;47.796;11.968;2022-10-26T05:39:55;3.28;;;0.70;;
64031;SDS011;50278;47.796;11.968;2022-10-26T05:42:21;3.35;;;0.80;;
64031;SDS011;50278;47.796;11.968;2022-10-26T05:44:46;3.00;;;1.20;;
64031;SDS011;50278;47.796;11.968;2022-10-26T05:47:12;1.55;;;0.90;;
64031;SDS011;50278;47.796;11.968;2022-10-26T05:49:37;2.40;;;1.08;;
64031;SDS011;50278;47.796;11.968;2022-10-26T05:52:03;3.05;;;1.33;;
64031;SDS011;50278;47.796;11.968;2022-10-26T05:54:29;4.18;;;2.22;;
64031;SDS011;50278;47.796;11.968;2022-10-26T05:56:55;2.63;;;2.10;;
64031;SDS011;50278;47.796;11.968;2022-10-26T05:59:20;3.45;;;2.30;;
64031;SDS011;50278;47.796;11.968;2022-10-26T06:02:04;5.25;;;2.08;;
64031;SDS011;50278;47.796;11.968;2022-10-26T06:04:37;3.17;;;1.85;;
64031;SDS011;50278;47.796;11.968;2022-10-26T06:07:16;3.35;;;1.90;;
64031;SDS011;50278;47.796;11.968;2022-10-26T06:09:44;2.55;;;1.70;;
64031;SDS011;50278;47.796;11.968;2022-10-26T06:12:11;3.35;;;1.63;;
64031;SDS011;50278;47.796;11.968;2022-10-26T06:14:37;3.20;;;1.15;;
64031;SDS011;50278;47.796;11.968;2022-10-26T06:17:40;1.90;;;1.17;;
64031;SDS011;50278;47.796;11.968;2022-10-26T06:20:22;2.65;;;1.30;;
64031;SDS011;50278;47.796;11.968;2022-10-26T06:31:20;5.80;;;2.00;;
64031;SDS011;50278;47.796;11.968;2022-10-26T06:33:46;3.03;;;1.25;;
64031;SDS011;50278;47.796;11.968;2022-10-26T06:36:25;2.97;;;1.80;;
64031;SDS011;50278;47.796;11.968;2022-10-26T06:38:53;3.58;;;1.63;;
64031;SDS011;50278;47.796;11.968;2022-10-26T06:41:32;2.83;;;2.28;;
64031;SDS011;50278;47.796;11.968;2022-10-26T06:43:59;2.70;;;1.80;;
64031;SDS011;50278;47.796;11.968;2022-10-26T06:54:42;3.92;;;1.60;;
64031;SDS011;50278;47.796;11.968;2022-10-26T06:57:13;3.70;;;2.00;;
64031;SDS011;50278;47.796;11.968;2022-10-26T07:02:15;5.15;;;2.40;;
64031;SDS011;50278;47.796;11.968;2022-10-26T07:04:41;5.10;;;1.80;;
64031;SDS011;50278;47.796;11.968;2022-10-26T07:07:12;5.22;;;2.03;;
64031;SDS011;50278;47.796;11.968;2022-10-26T07:09:42;2.42;;;1.50;;
64031;SDS011;50278;47.796;11.968;2022-10-26T07:12:07;2.45;;;1.50;;
64031;SDS011;50278;47.796;11.968;2022-10-26T07:14:33;2.75;;;1.60;;
64031;SDS011;50278;47.796;11.968;2022-10-26T07:16:58;4.93;;;2.03;;
64031;SDS011;50278;47.796;11.968;2022-10-26T07:19:24;3.72;;;1.52;;
64031;SDS011;50278;47.796;11.968;2022-10-26T07:21:52;5.97;;;2.25;;
64031;SDS011;50278;47.796;11.968;2022-10-26T07:24:20;2.17;;;1.73;;
64031;SDS011;50278;47.796;11.968;2022-10-26T07:26:46;3.15;;;1.73;;
64031;SDS011;50278;47.796;11.968;2022-10-26T07:29:12;3.85;;;1.40;;
64031;SDS011;50278;47.796;11.968;2022-10-26T07:31:38;2.97;;;1.60;;
64031;SDS011;50278;47.796;11.968;2022-10-26T07:34:03;4.40;;;1.50;;
64031;SDS011;50278;47.796;11.968;2022-10-26T07:36:29;2.45;;;1.50;;
64031;SDS011;50278;47.796;11.968;2022-10-26T07:38:54;2.47;;;1.38;;
64031;SDS011;50278;47.796;11.968;2022-10-26T07:41:20;4.63;;;1.60;;
64031;SDS011;50278;47.796;11.968;2022-10-26T07:43:45;3.40;;;1.35;;
64031;SDS011;50278;47.796;11.968;2022-10-26T07:46:13;4.72;;;1.27;;
64031;SDS011;50278;47.796;11.968;2022-10-26T07:48:40;2.65;;;1.17;;
64031;SDS011;50278;47.796;11.968;2022-10-26T07:51:06;1.42;;;0.90;;
64031;SDS011;50278;47.796;11.968;2022-10-26T07:53:31;1.77;;;1.08;;
64031;SDS011;50278;47.796;11.968;2022-10-26T07:55:57;6.78;;;1.30;;
64031;SDS011;50278;47.796;11.968;2022-10-26T07:58:23;2.10;;;1.08;;
64031;SDS011;50278;47.796;11.968;2022-10-26T08:00:53;1.70;;;1.05;;
64031;SDS011;50278;47.796;11.968;2022-10-26T08:03:19;4.38;;;1.10;;
64031;SDS011;50278;47.796;11.968;2022-10-26T08:05:45;3.60;;;1.20;;
64031;SDS011;50278;47.796;11.968;2022-10-26T08:08:15;1.92;;;1.00;;
64031;SDS011;50278;47.796;11.968;2022-10-26T08:10:44;1.38;;;0.93;;
64031;SDS011;50278;47.796;11.968;2022-10-26T08:13:10;3.05;;;1.00;;
64031;SDS011;50278;47.796;11.968;2022-10-26T08:15:36;1.38;;;0.93;;
64031;SDS011;50278;47.796;11.968;2022-10-26T08:18:02;2.42;;;1.20;;
64031;SDS011;50278;47.796;11.968;2022-10-26T08:20:28;1.70;;;0.85;;
64031;SDS011;50278;47.796;11.968;2022-10-26T08:22:57;2.60;;;1.02;;
64031;SDS011;50278;47.796;11.968;2022-10-26T08:25:23;2.00;;;1.02;;
64031;SDS011;50278;47.796;11.968;2022-10-26T08:27:50;1.75;;;1.35;;
64031;SDS011;50278;47.796;11.968;2022-10-26T08:30:15;3.30;;;0.93;;
64031;SDS011;50278;47.796;11.968;2022-10-26T08:32:41;2.83;;;1.02;;
64031;SDS011;50278;47.796;11.968;2022-10-26T08:35:08;2.20;;;0.88;;
64031;SDS011;50278;47.796;11.968;2022-10-26T08:37:34;2.17;;;1.27;;
64031;SDS011;50278;47.796;11.968;2022-10-26T08:40:00;2.47;;;1.08;;
64031;SDS011;50278;47.796;11.968;2022-10-26T08:45:22;2.03;;;1.20;;
64031;SDS011;50278;47.796;11.968;2022-10-26T08:47:53;1.70;;;1.00;;
64031;SDS011;50278;47.796;11.968;2022-10-26T08:50:24;1.98;;;0.82;;
64031;SDS011;50278;47.796;11.968;2022-10-26T08:55:32;2.88;;;1.00;;
64031;SDS011;50278;47.796;11.968;2022-10-26T08:58:04;3.22;;;1.20;;
64031;SDS011;50278;47.796;11.968;2022-10-26T09:00:34;2.70;;;1.50;;
64031;SDS011;50278;47.796;11.968;2022-10-26T09:03:05;3.25;;;1.58;;
64031;SDS011;50278;47.796;11.968;2022-10-26T09:06:04;2.40;;;1.40;;
64031;SDS011;50278;47.796;11.968;2022-10-26T09:11:32;2.00;;;1.10;;
64031;SDS011;50278;47.796;11.968;2022-10-26T09:20:05;2.90;;;1.02;;
64031;SDS011;50278;47.796;11.968;2022-10-26T09:25:16;1.48;;;1.00;;
64031;SDS011;50278;47.796;11.968;2022-10-26T09:27:47;1.98;;;0.75;;
64031;SDS011;50278;47.796;11.968;2022-10-26T09:30:17;2.35;;;0.90;;
64031;SDS011;50278;47.796;11.968;2022-10-26T09:32:48;2.45;;;0.90;;
64031;SDS011;50278;47.796;11.968;2022-10-26T09:35:27;2.42;;;1.40;;
64031;SDS011;50278;47.796;11.968;2022-10-26T09:37:58;1.63;;;0.80;;
64031;SDS011;50278;47.796;11.968;2022-10-26T09:40:34;2.08;;;1.00;;
64031;SDS011;50278;47.796;11.968;2022-10-26T09:43:15;2.22;;;0.70;;
64031;SDS011;50278;47.796;11.968;2022-10-26T09:45:44;1.45;;;0.90;;
64031;SDS011;50278;47.796;11.968;2022-10-26T09:48:17;2.17;;;1.20;;
64031;SDS011;50278;47.796;11.968;2022-10-26T09:50:47;4.53;;;2.15;;
64031;SDS011;50278;47.796;11.968;2022-10-26T09:53:14;3.15;;;1.10;;
64031;SDS011;50278;47.796;11.968;2022-10-26T09:55:41;2.50;;;1.27;;
64031;SDS011;50278;47.796;11.968;2022-10-26T09:58:13;3.15;;;1.10;;
64031;SDS011;50278;47.796;11.968;2022-10-26T10:00:42;1.88;;;0.70;;
64031;SDS011;50278;47.796;11.968;2022-10-26T10:03:19;1.38;;;0.68;;
64031;SDS011;50278;47.796;11.968;2022-10-26T10:05:48;2.88;;;0.82;;
64031;SDS011;50278;47.796;11.968;2022-10-26T10:11:19;2.10;;;0.90;;
64031;SDS011;50278;47.796;11.968;2022-10-26T10:13:42;5.47;;;1.05;;
64031;SDS011;50278;47.796;11.968;2022-10-26T10:16:20;2.70;;;1.10;;
64031;SDS011;50278;47.796;11.968;2022-10-26T10:18:52;2.00;;;1.10;;
64031;SDS011;50278;47.796;11.968;2022-10-26T10:21:19;1.65;;;1.17;;
64031;SDS011;50278;47.796;11.968;2022-10-26T10:23:49;3.22;;;1.20;;
64031;SDS011;50278;47.796;11.968;2022-10-26T10:26:16;2.55;;;1.98;;
64031;SDS011;50278;47.796;11.968;2022-10-26T10:28:42;2.53;;;1.48;;
64031;SDS011;50278;47.796;11.968;2022-10-26T10:31:25;2.45;;;1.20;;
64031;SDS011;50278;47.796;11.968;2022-10-26T10:33:52;1.52;;;1.00;;
64031;SDS011;50278;47.796;11.968;2022-10-26T10:36:19;3.90;;;1.17;;
64031;SDS011;50278;47.796;11.968;2022-10-26T10:38:50;4.32;;;1.25;;
64031;SDS011;50278;47.796;11.968;2022-10-26T10:41:29;3.17;;;1.40;;
64031;SDS011;50278;47.796;11.968;2022-10-26T10:44:05;1.75;;;1.40;;
64031;SDS011;50278;47.796;11.968;2022-10-26T10:46:39;2.15;;;1.15;;
64031;SDS011;50278;47.796;11.968;2022-10-26T10:49:08;1.55;;;0.75;;
64031;SDS011;50278;47.796;11.968;2022-10-26T10:51:49;1.95;;;1.00;;
64031;SDS011;50278;47.796;11.968;2022-10-26T10:54:20;3.72;;;1.58;;
64031;SDS011;50278;47.796;11.968;2022-10-26T10:56:53;2.55;;;0.88;;
64031;SDS011;50278;47.796;11.968;2022-10-26T10:59:31;1.90;;;1.30;;
64031;SDS011;50278;47.796;11.968;2022-10-26T11:04:34;2.25;;;0.85;;
64031;SDS011;50278;47.796;11.968;2022-10-26T11:07:05;1.95;;;1.25;;
64031;SDS011;50278;47.796;11.968;2022-10-26T11:09:35;1.70;;;1.60;;
64031;SDS011;50278;47.796;11.968;2022-10-26T11:14:48;3.47;;;1.00;;
64031;SDS011;50278;47.796;11.968;2022-10-26T11:17:20;1.60;;;0.80;;
64031;SDS011;50278;47.796;11.968;2022-10-26T11:25:21;1.02;;;0.57;;
64031;SDS011;50278;47.796;11.968;2022-10-26T11:28:13;4.63;;;1.20;;
64031;SDS011;50278;47.796;11.968;2022-10-26T11:30:57;1.83;;;0.80;;
64031;SDS011;50278;47.796;11.968;2022-10-26T11:33:29;2.53;;;1.00;;
64031;SDS011;50278;47.796;11.968;2022-10-26T11:36:04;4.05;;;1.08;;
64031;SDS011;50278;47.796;11.968;2022-10-26T11:38:53;1.75;;;0.80;;
64031;SDS011;50278;47.796;11.968;2022-10-26T11:44:04;2.30;;;0.60;;
64031;SDS011;50278;47.796;11.968;2022-10-26T11:46:45;1.38;;;0.70;;
64031;SDS011;50278;47.796;11.968;2022-10-26T11:51:58;1.35;;;0.70;;
64031;SDS011;50278;47.796;11.968;2022-10-26T11:54:36;1.08;;;0.70;;
64031;SDS011;50278;47.796;11.968;2022-10-26T11:57:06;2.55;;;0.90;;
64031;SDS011;50278;47.796;11.968;2022-10-26T11:59:36;4.35;;;1.35;;
64031;SDS011;50278;47.796;11.968;2022-10-26T12:05:18;2.83;;;1.80;;
64031;SDS011;50278;47.796;11.968;2022-10-26T12:07:47;4.70;;;1.63;;
64031;SDS011;50278;47.796;11.968;2022-10-26T12:10:24;1.95;;;0.73;;
64031;SDS011;50278;47.796;11.968;2022-10-26T12:15:52;2.90;;;0.90;;
64031;SDS011;50278;47.796;11.968;2022-10-26T12:21:18;4.32;;;1.38;;
64031;SDS011;50278;47.796;11.968;2022-10-26T12:23:57;3.00;;;1.00;;
64031;SDS011;50278;47.796;11.968;2022-10-26T12:31:59;3.42;;;1.25;;
64031;SDS011;50278;47.796;11.968;2022-10-26T12:34:22;2.95;;;1.30;;
64031;SDS011;50278;47.796;11.968;2022-10-26T12:44:37;1.92;;;0.80;;
64031;SDS011;50278;47.796;11.968;2022-10-26T12:47:08;1.98;;;0.65;;
64031;SDS011;50278;47.796;11.968;2022-10-26T12:52:48;1.30;;;1.17;;
64031;SDS011;50278;47.796;11.968;2022-10-26T12:58:28;2.13;;;0.80;;
64031;SDS011;50278;47.796;11.968;2022-10-26T13:03:29;2.75;;;1.13;;
64031;SDS011;50278;47.796;11.968;2022-10-26T13:06:19;2.13;;;1.17;;
64031;SDS011;50278;47.796;11.968;2022-10-26T13:08:54;4.05;;;0.98;;
64031;SDS011;50278;47.796;11.968;2022-10-26T13:11:29;1.80;;;0.93;;
64031;SDS011;50278;47.796;11.968;2022-10-26T13:13:57;1.70;;;0.80;;
64031;SDS011;50278;47.796;11.968;2022-10-26T13:16:33;5.72;;;1.27;;
64031;SDS011;50278;47.796;11.968;2022-10-26T13:18:59;3.42;;;1.17;;
64031;SDS011;50278;47.796;11.968;2022-10-26T13:21:25;2.90;;;0.77;;
64031;SDS011;50278;47.796;11.968;2022-10-26T13:26:17;4.00;;;1.90;;
64031;SDS011;50278;47.796;11.968;2022-10-26T13:28:54;3.35;;;1.45;;
64031;SDS011;50278;47.796;11.968;2022-10-26T13:34:08;1.42;;;0.80;;
64031;SDS011;50278;47.796;11.968;2022-10-26T13:36:37;2.35;;;1.30;;
64031;SDS011;50278;47.796;11.968;2022-10-26T13:41:42;4.05;;;0.80;;
64031;SDS011;50278;47.796;11.968;2022-10-26T13:44:15;3.92;;;0.90;;
64031;SDS011;50278;47.796;11.968;2022-10-26T13:46:47;3.10;;;1.20;;
64031;SDS011;50278;47.796;11.968;2022-10-26T13:49:20;2.10;;;0.90;;
64031;SDS011;50278;47.796;11.968;2022-10-26T13:51:51;2.55;;;1.17;;
64031;SDS011;50278;47.796;11.968;2022-10-26T13:57:00;4.03;;;1.38;;
64031;SDS011;50278;47.796;11.968;2022-10-26T13:59:37;3.33;;;1.20;;
64031;SDS011;50278;47.796;11.968;2022-10-26T14:02:07;3.60;;;1.40;;
64031;SDS011;50278;47.796;11.968;2022-10-26T14:04:39;1.70;;;1.15;;
64031;SDS011;50278;47.796;11.968;2022-10-26T14:07:05;2.95;;;1.15;;
64031;SDS011;50278;47.796;11.968;2022-10-26T14:09:30;1.67;;;0.90;;
64031;SDS011;50278;47.796;11.968;2022-10-26T14:11:56;3.80;;;1.25;;
64031;SDS011;50278;47.796;11.968;2022-10-26T14:16:54;1.67;;;1.00;;
64031;SDS011;50278;47.796;11.968;2022-10-26T14:19:31;3.00;;;1.10;;
64031;SDS011;50278;47.796;11.968;2022-10-26T14:21:59;1.40;;;1.10;;
64031;SDS011;50278;47.796;11.968;2022-10-26T14:24:27;3.60;;;1.20;;
64031;SDS011;50278;47.796;11.968;2022-10-26T14:26:54;2.10;;;1.20;;
64031;SDS011;50278;47.796;11.968;2022-10-26T14:29:20;2.55;;;1.20;;
64031;SDS011;50278;47.796;11.968;2022-10-26T14:31:48;3.92;;;1.10;;
64031;SDS011;50278;47.796;11.968;2022-10-26T14:34:15;2.20;;;1.10;;
64031;SDS011;50278;47.796;11.968;2022-10-26T14:39:15;2.90;;;1.52;;
64031;SDS011;50278;47.796;11.968;2022-10-26T14:41:45;2.03;;;1.27;;
64031;SDS011;50278;47.796;11.968;2022-10-26T14:44:18;3.63;;;1.60;;
64031;SDS011;50278;47.796;11.968;2022-10-26T14:46:46;4.28;;;2.90;;
64031;SDS011;50278;47.796;11.968;2022-10-26T14:49:18;3.20;;;2.00;;
64031;SDS011;50278;47.796;11.968;2022-10-26T14:51:49;2.65;;;1.60;;
64031;SDS011;50278;47.796;11.968;2022-10-26T14:54:23;5.07;;;1.77;;
64031;SDS011;50278;47.796;11.968;2022-10-26T14:56:50;4.22;;;1.70;;
64031;SDS011;50278;47.796;11.968;2022-10-26T15:01:48;2.90;;;1.52;;
64031;SDS011;50278;47.796;11.968;2022-10-26T15:07:00;7.65;;;2.30;;
64031;SDS011;50278;47.796;11.968;2022-10-26T15:15:01;4.78;;;1.50;;
64031;SDS011;50278;47.796;11.968;2022-10-26T15:17:42;7.43;;;1.50;;
64031;SDS011;50278;47.796;11.968;2022-10-26T15:20:26;5.78;;;1.50;;
64031;SDS011;50278;47.796;11.968;2022-10-26T15:22:59;7.07;;;1.40;;
64031;SDS011;50278;47.796;11.968;2022-10-26T15:25:29;1.70;;;0.95;;
64031;SDS011;50278;47.796;11.968;2022-10-26T15:28:07;4.40;;;1.50;;
64031;SDS011;50278;47.796;11.968;2022-10-26T15:30:35;5.03;;;1.20;;
64031;SDS011;50278;47.796;11.968;2022-10-26T15:33:08;1.98;;;1.13;;
64031;SDS011;50278;47.796;11.968;2022-10-26T15:35:44;1.90;;;1.17;;
64031;SDS011;50278;47.796;11.968;2022-10-26T15:38:09;2.25;;;1.13;;
64031;SDS011;50278;47.796;11.968;2022-10-26T15:40:35;2.08;;;0.77;;
64031;SDS011;50278;47.796;11.968;2022-10-26T15:43:08;5.70;;;1.10;;
64031;SDS011;50278;47.796;11.968;2022-10-26T15:45:36;3.00;;;1.10;;
64031;SDS011;50278;47.796;11.968;2022-10-26T15:48:16;2.35;;;1.00;;
64031;SDS011;50278;47.796;11.968;2022-10-26T15:50:51;2.95;;;1.13;;
64031;SDS011;50278;47.796;11.968;2022-10-26T15:53:18;2.55;;;0.80;;
64031;SDS011;50278;47.796;11.968;2022-10-26T15:55:51;4.82;;;0.90;;
64031;SDS011;50278;47.796;11.968;2022-10-26T15:58:18;4.22;;;0.88;;
64031;SDS011;50278;47.796;11.968;2022-10-26T16:00:44;2.88;;;0.90;;
64031;SDS011;50278;47.796;11.968;2022-10-26T16:03:13;4.07;;;1.42;;
64031;SDS011;50278;47.796;11.968;2022-10-26T16:05:41;3.50;;;1.10;;
64031;SDS011;50278;47.796;11.968;2022-10-26T16:08:08;3.22;;;1.35;;
64031;SDS011;50278;47.796;11.968;2022-10-26T16:10:36;6.68;;;1.67;;
64031;SDS011;50278;47.796;11.968;2022-10-26T16:13:02;5.72;;;1.63;;
64031;SDS011;50278;47.796;11.968;2022-10-26T16:15:27;2.90;;;1.65;;
64031;SDS011;50278;47.796;11.968;2022-10-26T16:17:53;5.45;;;1.55;;
64031;SDS011;50278;47.796;11.968;2022-10-26T16:20:22;5.15;;;2.72;;
64031;SDS011;50278;47.796;11.968;2022-10-26T16:22:51;5.47;;;4.05;;
64031;SDS011;50278;47.796;11.968;2022-10-26T16:25:18;4.50;;;3.60;;
64031;SDS011;50278;47.796;11.968;2022-10-26T16:27:45;4.95;;;3.10;;
64031;SDS011;50278;47.796;11.968;2022-10-26T16:30:12;6.55;;;3.88;;
64031;SDS011;50278;47.796;11.968;2022-10-26T16:32:38;6.47;;;3.35;;
64031;SDS011;50278;47.796;11.968;2022-10-26T16:35:04;4.93;;;3.17;;
64031;SDS011;50278;47.796;11.968;2022-10-26T16:37:30;5.82;;;1.95;;
64031;SDS011;50278;47.796;11.968;2022-10-26T16:39:56;5.88;;;2.10;;
64031;SDS011;50278;47.796;11.968;2022-10-26T16:42:22;5.07;;;2.42;;
64031;SDS011;50278;47.796;11.968;2022-10-26T16:44:48;4.70;;;2.58;;
64031;SDS011;50278;47.796;11.968;2022-10-26T16:47:14;5.85;;;2.17;;
64031;SDS011;50278;47.796;11.968;2022-10-26T16:49:39;5.88;;;1.92;;
64031;SDS011;50278;47.796;11.968;2022-10-26T16:52:10;7.07;;;1.85;;
64031;SDS011;50278;47.796;11.968;2022-10-26T16:54:36;5.05;;;1.85;;
64031;SDS011;50278;47.796;11.968;2022-10-26T16:57:02;5.60;;;2.10;;
64031;SDS011;50278;47.796;11.968;2022-10-26T16:59:27;5.28;;;1.98;;
64031;SDS011;50278;47.796;11.968;2022-10-26T17:01:53;4.63;;;1.90;;
64031;SDS011;50278;47.796;11.968;2022-10-26T17:04:19;9.35;;;2.20;;